createdAt,value
2023-05-19T00:04:50.584Z,1019.9
2023-05-19T00:10:56.895Z,1019.8
2023-05-19T00:17:02.500Z,1019.7
2023-05-19T00:23:08.237Z,1019.7
2023-05-19T00:29:14.120Z,1019.6
2023-05-19T00:35:19.822Z,1019.6
2023-05-19T00:41:25.996Z,1019.6
2023-05-19T00:47:34.682Z,1019.5
2023-05-19T00:53:40.256Z,1019.5
2023-05-19T00:59:45.785Z,1019.5
2023-05-19T01:05:51.787Z,1019.5
2023-05-19T01:11:57.319Z,1019.4
2023-05-19T01:18:02.760Z,1019.5
2023-05-19T01:24:09.485Z,1019.5
2023-05-19T01:30:14.729Z,1019.5
2023-05-19T01:36:20.430Z,1019.5
2023-05-19T01:42:26.479Z,1019.5
2023-05-19T01:48:32.378Z,1019.5
2023-05-19T01:54:38.178Z,1019.5
2023-05-19T02:00:43.821Z,1019.5
2023-05-19T02:06:49.732Z,1019.4
2023-05-19T02:12:55.757Z,1019.4
2023-05-19T02:19:01.755Z,1019.3
2023-05-19T02:25:07.321Z,1019.3
2023-05-19T02:31:12.633Z,1019.3
2023-05-19T02:37:18.655Z,1019.3
2023-05-19T02:43:23.845Z,1019.3
2023-05-19T02:49:28.951Z,1019.3
2023-05-19T02:55:35.127Z,1019.3
2023-05-19T03:01:40.973Z,1019.2
2023-05-19T03:07:47.090Z,1019.2
2023-05-19T03:13:53.347Z,1019.2
2023-05-19T03:19:59.050Z,1019.2
2023-05-19T03:26:05.116Z,1019.2
2023-05-19T03:32:11.462Z,1019.1
2023-05-19T03:38:17.407Z,1019.1
2023-05-19T03:44:22.643Z,1019
2023-05-19T03:50:28.583Z,1019
2023-05-19T03:56:34.613Z,1019.1
2023-05-19T04:02:40.179Z,1019
2023-05-19T04:08:46.537Z,1019
2023-05-19T04:14:52.356Z,1019
2023-05-19T04:20:57.670Z,1019
2023-05-19T04:27:03.831Z,1019
2023-05-19T04:33:09.457Z,1019
2023-05-19T04:39:15.020Z,1019
2023-05-19T04:45:20.232Z,1019.1
2023-05-19T04:51:25.417Z,1019
2023-05-19T04:57:31.702Z,1018.9
2023-05-19T05:03:37.616Z,1018.8
2023-05-19T05:09:42.825Z,1018.9
2023-05-19T05:15:48.304Z,1018.9
2023-05-19T05:21:54.208Z,1018.9
2023-05-19T05:27:59.989Z,1018.9
2023-05-19T05:34:05.756Z,1018.8
2023-05-19T05:40:11.185Z,1018.9
2023-05-19T05:46:16.777Z,1018.9
2023-05-19T05:52:22.624Z,1018.9
2023-05-19T05:58:27.890Z,1018.9
2023-05-19T06:04:34.036Z,1018.8
2023-05-19T06:10:39.589Z,1018.9
2023-05-19T06:16:45.595Z,1018.9
2023-05-19T06:22:52.195Z,1018.9
2023-05-19T06:28:57.739Z,1018.9
2023-05-19T06:35:03.539Z,1018.9
2023-05-19T06:41:09.162Z,1018.9
2023-05-19T06:47:15.387Z,1018.8
2023-05-19T06:53:20.936Z,1019
2023-05-19T06:59:26.701Z,1019
2023-05-19T07:05:32.288Z,1019
2023-05-19T07:11:37.995Z,1019
2023-05-19T07:17:44.500Z,1018.9
2023-05-19T07:23:50.195Z,1018.9
2023-05-19T07:29:56.338Z,1018.9
2023-05-19T07:36:02.131Z,1018.9
2023-05-19T07:42:08.119Z,1018.8
2023-05-19T07:48:14.521Z,1018.8
2023-05-19T07:54:20.282Z,1018.8
2023-05-19T08:00:25.310Z,1018.8
2023-05-19T08:06:31.199Z,1018.9
2023-05-19T08:12:36.688Z,1018.9
2023-05-19T08:18:42.410Z,1018.8
2023-05-19T08:24:48.339Z,1018.7
2023-05-19T08:30:53.615Z,1018.7
2023-05-19T08:37:00.112Z,1018.8
2023-05-19T08:43:05.957Z,1018.8
2023-05-19T08:49:12.092Z,1018.8
2023-05-19T08:55:17.509Z,1018.8
2023-05-19T09:01:23.537Z,1018.7
2023-05-19T09:07:29.879Z,1018.7
2023-05-19T09:13:35.197Z,1018.8
2023-05-19T09:19:41.441Z,1018.7
2023-05-19T09:25:47.001Z,1018.7
2023-05-19T09:31:53.167Z,1018.7
2023-05-19T09:37:58.982Z,1018.7
2023-05-19T09:44:04.488Z,1018.6
2023-05-19T09:50:10.863Z,1018.7
2023-05-19T09:56:16.856Z,1018.7
2023-05-19T10:02:22.619Z,1018.6
2023-05-19T10:08:28.618Z,1018.6
2023-05-19T10:14:34.999Z,1018.6
2023-05-19T10:20:40.010Z,1018.6
2023-05-19T10:26:46.176Z,1018.6
2023-05-19T10:32:52.266Z,1018.6
2023-05-19T10:38:58.111Z,1018.6
2023-05-19T10:45:04.144Z,1018.6
2023-05-19T10:51:10.518Z,1018.5
2023-05-19T10:57:15.920Z,1018.5
2023-05-19T11:03:21.011Z,1018.4
2023-05-19T11:09:41.291Z,1018.5
2023-05-19T11:15:46.725Z,1018.5
2023-05-19T11:21:52.686Z,1018.4
2023-05-19T11:27:57.711Z,1018.3
2023-05-19T11:34:03.627Z,1018.4
2023-05-19T11:40:09.295Z,1018.5
2023-05-19T11:46:14.811Z,1018.4
2023-05-19T11:52:20.140Z,1018.4
2023-05-19T11:58:25.572Z,1018.5
2023-05-19T12:04:31.526Z,1018.4
2023-05-19T12:10:37.344Z,1018.5
2023-05-19T12:16:42.929Z,1018.5
2023-05-19T12:22:48.691Z,1018.5
2023-05-19T12:28:54.464Z,1018.5
2023-05-19T12:34:59.767Z,1018.5
2023-05-19T12:41:05.604Z,1018.4
2023-05-19T12:47:11.529Z,1018.4
2023-05-19T12:53:17.571Z,1018.3
2023-05-19T12:59:39.136Z,1018.4
2023-05-19T13:05:45.324Z,1018.4
2023-05-19T13:11:50.618Z,1018.3
2023-05-19T13:17:56.664Z,1018.2
2023-05-19T13:24:02.566Z,1018.2
2023-05-19T13:30:07.763Z,1018.2
2023-05-19T13:36:13.541Z,1018.2
2023-05-19T13:42:19.516Z,1018.1
2023-05-19T13:48:24.961Z,1018
2023-05-19T13:54:30.235Z,1018
2023-05-19T14:00:35.756Z,1017.9
2023-05-19T14:06:41.992Z,1017.9
2023-05-19T14:13:31.927Z,1017.8
2023-05-19T14:19:43.128Z,1017.8
2023-05-19T14:25:48.731Z,1017.8
2023-05-19T14:31:54.146Z,1017.9
2023-05-19T14:38:00.540Z,1017.8
2023-05-19T14:44:06.226Z,1017.8
2023-05-19T14:50:11.589Z,1017.8
2023-05-19T14:56:17.174Z,1017.9
2023-05-19T15:02:22.783Z,1017.8
2023-05-19T15:08:28.586Z,1017.8
2023-05-19T15:14:34.320Z,1017.7
2023-05-19T15:20:40.339Z,1017.7
2023-05-19T15:26:45.457Z,1017.6
2023-05-19T15:32:51.100Z,1017.6
2023-05-19T15:38:56.269Z,1017.5
2023-05-19T15:45:01.817Z,1017.5
2023-05-19T15:51:08.134Z,1017.4
2023-05-19T15:57:13.709Z,1017.4
2023-05-19T16:03:19.797Z,1017.3
2023-05-19T16:09:25.285Z,1017.2
2023-05-19T16:15:31.260Z,1017.3
2023-05-19T16:21:36.685Z,1017.2
2023-05-19T16:27:42.420Z,1017.1
2023-05-19T16:33:48.232Z,1017.1
2023-05-19T16:39:53.552Z,1017
2023-05-19T16:45:59.752Z,1016.9
2023-05-19T16:52:05.165Z,1016.9
2023-05-19T16:58:11.084Z,1016.9
2023-05-19T17:04:16.503Z,1016.9
2023-05-19T17:10:21.473Z,1016.8
2023-05-19T17:16:27.628Z,1016.8
2023-05-19T17:22:33.192Z,1016.8
2023-05-19T17:28:39.220Z,1016.9
2023-05-19T17:34:44.925Z,1016.9
2023-05-19T17:40:50.504Z,1016.8
2023-05-19T17:46:55.904Z,1016.8
2023-05-19T17:53:01.250Z,1016.7
2023-05-19T17:59:07.424Z,1016.7
2023-05-19T18:05:12.863Z,1016.7
2023-05-19T18:11:18.365Z,1016.8
2023-05-19T18:17:23.970Z,1016.8
2023-05-19T18:23:29.505Z,1016.8
2023-05-19T18:29:35.501Z,1016.8
2023-05-19T18:35:43.325Z,1016.7
2023-05-19T18:41:49.123Z,1016.7
2023-05-19T18:47:54.804Z,1016.7
2023-05-19T18:54:00.887Z,1016.7
2023-05-19T19:00:06.094Z,1016.7
2023-05-19T19:06:12.021Z,1016.7
2023-05-19T19:12:19.024Z,1016.7
2023-05-19T19:18:25.640Z,1016.8
2023-05-19T19:24:31.642Z,1016.9
2023-05-19T19:30:38.416Z,1016.9
2023-05-19T19:36:43.948Z,1016.9
2023-05-19T19:42:48.885Z,1016.9
2023-05-19T19:48:54.728Z,1016.9
2023-05-19T19:55:00.574Z,1016.8
2023-05-19T20:01:05.927Z,1016.8
2023-05-19T20:07:11.833Z,1016.8
2023-05-19T20:13:17.605Z,1016.8
2023-05-19T20:19:23.288Z,1016.7
2023-05-19T20:25:29.813Z,1016.7
2023-05-19T20:31:35.765Z,1016.6
2023-05-19T20:37:41.983Z,1016.6
2023-05-19T20:43:48.152Z,1016.6
2023-05-19T20:49:54.227Z,1016.6
2023-05-19T20:56:00.161Z,1016.5
2023-05-19T21:02:06.324Z,1016.6
2023-05-19T21:08:12.325Z,1016.5
2023-05-19T21:14:17.851Z,1016.5
2023-05-19T21:20:24.063Z,1016.6
2023-05-19T21:26:29.849Z,1016.5
2023-05-19T21:32:36.055Z,1016.5
2023-05-19T21:38:41.432Z,1016.5
2023-05-19T21:44:46.956Z,1016.4
2023-05-19T21:50:52.783Z,1016.4
2023-05-19T21:56:58.513Z,1016.4
2023-05-19T22:03:04.963Z,1016.3
2023-05-19T22:09:10.097Z,1016.3
2023-05-19T22:15:16.062Z,1016.3
2023-05-19T22:21:21.994Z,1016.2
2023-05-19T22:27:27.368Z,1016.2
2023-05-19T22:33:33.362Z,1016.1
2023-05-19T22:39:39.406Z,1016.2
2023-05-19T22:45:45.145Z,1016.1
2023-05-19T22:51:51.314Z,1016.1
2023-05-19T22:57:57.480Z,1016.2
2023-05-19T23:04:03.313Z,1016.1
2023-05-19T23:10:09.268Z,1016.1
2023-05-19T23:16:14.937Z,1016.1
2023-05-19T23:22:20.280Z,1016
2023-05-19T23:28:26.593Z,1015.9
2023-05-19T23:34:31.387Z,1015.8
2023-05-19T23:40:36.926Z,1015.8
2023-05-19T23:46:43.184Z,1015.7
2023-05-19T23:52:48.739Z,1015.6
2023-05-19T23:58:54.461Z,1015.6
